Time;durP1;ratioP1;P1;durP2;ratioP2;P2;SDS_P1;SDS_P2;PMS_P1;PMS_P2;Temp;Humidity;BMP_temperature;BMP_pressure;BME280_temperature;BME280_humidity;BME280_pressure;Samples;Min_cycle;Max_cycle;Signal;HPM_P1;HPM_P2
2021/10/21 00:01:09;;;;;;;35.15;26.52;;;;;;;11.78;83.70;100381.19;5025713;28;20079;-64
2021/10/21 00:03:35;;;;;;;38.55;27.67;;;;;;;11.82;83.16;100396.03;5025299;28;20368;-63
2021/10/21 00:06:01;;;;;;;35.63;26.88;;;;;;;11.77;83.92;100385.72;5043606;28;20051;-63
2021/10/21 00:08:26;;;;;;;36.97;26.42;;;;;;;11.79;83.40;100385.56;5045281;28;20060;-63
2021/10/21 00:10:52;;;;;;;34.90;26.15;;;;;;;11.73;84.11;100370.03;5044221;28;20025;-63
2021/10/21 00:13:17;;;;;;;41.03;26.98;;;;;;;11.75;83.92;100368.03;5045475;28;20029;-64
2021/10/21 00:15:43;;;;;;;34.63;25.70;;;;;;;11.76;84.19;100367.03;5045146;28;20556;-64
2021/10/21 00:18:10;;;;;;;37.92;25.92;;;;;;;11.74;84.10;100361.00;5045409;28;20025;-64
2021/10/21 00:20:36;;;;;;;38.13;26.98;;;;;;;11.69;83.87;100358.72;5044784;28;20437;-64
2021/10/21 00:23:01;;;;;;;40.30;27.20;;;;;;;11.67;84.17;100357.16;5044169;28;20017;-64
2021/10/21 00:25:27;;;;;;;35.92;25.45;;;;;;;11.64;84.49;100346.72;5043561;28;20048;-64
2021/10/21 00:27:53;;;;;;;39.10;26.17;;;;;;;11.65;84.65;100353.75;5045663;28;20071;-62
2021/10/21 00:30:18;;;;;;;35.05;24.77;;;;;;;11.60;84.16;100338.03;5045212;28;20047;-64
2021/10/21 00:32:44;;;;;;;34.88;25.13;;;;;;;11.58;84.44;100329.28;5044739;28;20027;-63
2021/10/21 00:35:10;;;;;;;34.67;24.52;;;;;;;11.54;84.14;100323.34;5043808;28;20017;-64
2021/10/21 00:37:36;;;;;;;32.75;23.67;;;;;;;11.53;84.48;100320.78;5044604;28;20546;-64
2021/10/21 00:40:03;;;;;;;31.33;23.77;;;;;;;11.51;83.95;100317.38;5044202;28;20017;-63
2021/10/21 00:42:28;;;;;;;30.75;21.83;;;;;;;11.54;84.25;100325.16;5045269;28;20033;-64
2021/10/21 00:44:54;;;;;;;36.97;23.45;;;;;;;11.52;84.58;100322.59;5043571;28;20045;-64
2021/10/21 00:47:20;;;;;;;34.35;22.00;;;;;;;11.47;85.01;100305.22;5044976;28;20033;-64
2021/10/21 00:49:46;;;;;;;29.83;22.08;;;;;;;11.45;84.87;100302.69;5044981;28;20081;-64
2021/10/21 00:52:11;;;;;;;31.60;21.77;;;;;;;11.49;85.12;100300.56;5045138;28;20186;-65
2021/10/21 00:54:37;;;;;;;27.50;19.10;;;;;;;11.48;85.39;100305.09;5044717;28;20086;-64
2021/10/21 00:57:04;;;;;;;26.25;18.70;;;;;;;11.49;85.98;100303.25;5045017;28;20028;-64
2021/10/21 00:59:33;;;;;;;25.17;18.27;;;;;;;11.52;85.41;100297.59;5039875;28;20049;-65
2021/10/21 01:01:59;;;;;;;25.52;17.67;;;;;;;11.53;85.03;100285.88;5045218;28;20025;-64
2021/10/21 01:04:24;;;;;;;24.42;16.55;;;;;;;11.52;85.39;100282.31;5044451;28;20033;-64
2021/10/21 01:06:50;;;;;;;22.48;16.40;;;;;;;11.54;85.85;100280.34;5045071;28;20510;-64
2021/10/21 01:09:17;;;;;;;21.90;15.93;;;;;;;11.58;85.90;100275.56;5045116;28;20024;-64
2021/10/21 01:11:44;;;;;;;20.35;14.50;;;;;;;11.60;85.36;100270.03;5046684;28;20028;-65
2021/10/21 01:14:10;;;;;;;17.05;13.45;;;;;;;11.63;85.40;100259.03;5048280;28;20037;-64
2021/10/21 01:16:39;;;;;;;17.15;13.25;;;;;;;11.65;84.99;100249.84;5048321;28;20043;-64
2021/10/21 01:19:14;;;;;;;15.65;11.85;;;;;;;11.61;84.95;100239.50;5046933;28;20116;-67
2021/10/21 01:21:41;;;;;;;15.23;10.70;;;;;;;11.80;84.47;100247.56;5049096;28;20115;-69
2021/10/21 01:24:07;;;;;;;14.88;10.68;;;;;;;11.81;84.07;100243.88;5048686;28;20032;-68
2021/10/21 01:26:32;;;;;;;14.32;9.75;;;;;;;11.88;83.56;100240.47;5048468;28;20037;-69
2021/10/21 01:28:58;;;;;;;14.60;10.40;;;;;;;11.95;82.95;100240.72;5028717;28;20052;-69
2021/10/21 01:31:23;;;;;;;13.15;9.95;;;;;;;12.02;83.36;100241.88;5031221;28;20374;-64
2021/10/21 01:33:48;;;;;;;13.02;10.07;;;;;;;12.00;81.95;100225.88;5023142;28;20037;-63
2021/10/21 01:36:14;;;;;;;11.80;9.90;;;;;;;12.09;82.59;100230.38;5025013;28;20021;-63
2021/10/21 01:38:41;;;;;;;13.25;8.95;;;;;;;12.15;81.37;100229.78;5031501;28;20068;-63
2021/10/21 01:41:06;;;;;;;11.98;9.65;;;;;;;12.29;80.20;100229.28;5025326;28;20048;-63
2021/10/21 01:43:32;;;;;;;10.30;8.25;;;;;;;12.24;80.57;100223.53;5027044;28;20030;-63
2021/10/21 01:45:57;;;;;;;12.45;8.88;;;;;;;12.20;79.94;100194.38;5027759;28;20129;-64
2021/10/21 01:48:23;;;;;;;13.57;9.23;;;;;;;12.36;79.55;100206.22;5043847;28;20098;-64
2021/10/21 01:50:48;;;;;;;16.63;8.20;;;;;;;12.33;79.41;100201.13;5046434;28;20037;-64
2021/10/21 01:53:14;;;;;;;15.48;9.07;;;;;;;12.42;79.18;100208.31;5047641;28;20197;-64
2021/10/21 01:55:40;;;;;;;11.90;9.13;;;;;;;12.48;78.44;100213.06;5047250;28;20025;-62
2021/10/21 01:58:06;;;;;;;11.45;8.93;;;;;;;12.54;78.65;100211.66;5047771;28;20443;-64
2021/10/21 02:00:31;;;;;;;11.98;8.98;;;;;;;12.61;77.81;100207.34;5047421;28;20049;-63
2021/10/21 02:02:57;;;;;;;13.20;9.25;;;;;;;12.57;77.79;100206.81;5047527;28;20025;-64
2021/10/21 02:05:23;;;;;;;15.27;8.93;;;;;;;12.65;77.19;100206.06;5045599;28;20064;-63
2021/10/21 02:07:48;;;;;;;14.23;9.13;;;;;;;12.70;76.76;100192.97;5046151;28;20056;-68
2021/10/21 02:10:17;;;;;;;12.90;8.77;;;;;;;12.71;76.84;100192.00;5036349;28;20026;-70
2021/10/21 02:12:43;;;;;;;10.95;8.73;;;;;;;12.80;76.29;100196.47;5027124;28;20452;-68
2021/10/21 02:15:09;;;;;;;14.27;9.65;;;;;;;12.83;76.41;100190.81;5027611;28;20069;-68
2021/10/21 02:17:35;;;;;;;15.27;9.88;;;;;;;12.87;76.24;100182.25;5027339;28;20056;-69
2021/10/21 02:20:00;;;;;;;16.23;10.75;;;;;;;12.88;75.79;100178.56;5026690;28;20057;-69
2021/10/21 02:22:26;;;;;;;13.23;9.93;;;;;;;12.96;75.25;100175.13;5043295;28;20037;-68
2021/10/21 02:24:53;;;;;;;15.52;11.07;;;;;;;13.01;75.12;100176.38;5047173;28;20044;-67
2021/10/21 02:27:18;;;;;;;11.82;9.93;;;;;;;13.03;74.88;100176.22;5047346;28;20100;-68
2021/10/21 02:29:44;;;;;;;13.18;10.38;;;;;;;13.09;74.68;100172.94;5045183;28;20478;-68
2021/10/21 02:32:09;;;;;;;14.65;11.07;;;;;;;13.11;73.93;100171.75;5046971;28;20116;-69
2021/10/21 02:34:36;;;;;;;14.88;11.07;;;;;;;13.13;73.88;100158.16;5039716;28;20048;-68
2021/10/21 02:37:02;;;;;;;15.85;10.85;;;;;;;13.17;74.02;100164.91;5027272;28;20022;-68
2021/10/21 02:39:27;;;;;;;15.55;10.48;;;;;;;13.32;73.14;100160.66;5046451;28;20108;-68
2021/10/21 02:41:53;;;;;;;17.30;9.85;;;;;;;13.33;73.51;100160.53;5046821;28;20383;-69
2021/10/21 02:44:18;;;;;;;12.80;9.88;;;;;;;13.27;73.28;100152.19;5046878;28;20028;-68
2021/10/21 02:46:44;;;;;;;12.02;9.77;;;;;;;13.23;73.45;100145.44;5046487;28;20443;-68
2021/10/21 02:49:10;;;;;;;13.70;9.57;;;;;;;13.24;73.75;100147.97;5046636;28;20025;-68
2021/10/21 02:51:36;;;;;;;12.55;8.48;;;;;;;13.21;74.10;100140.22;5046251;28;20033;-69
2021/10/21 02:54:01;;;;;;;10.88;8.90;;;;;;;13.23;73.52;100145.44;5046760;28;20037;-69
2021/10/21 02:56:27;;;;;;;12.48;8.63;;;;;;;13.25;74.44;100146.09;5046163;28;20016;-69
2021/10/21 02:58:52;;;;;;;11.00;8.00;;;;;;;13.24;74.51;100145.28;5046232;28;20017;-68
2021/10/21 03:01:18;;;;;;;10.68;8.20;;;;;;;13.29;73.87;100136.75;5046650;28;20222;-68
2021/10/21 03:03:44;;;;;;;10.38;7.78;;;;;;;13.38;74.19;100146.56;5046079;28;20021;-68
2021/10/21 03:06:09;;;;;;;10.55;7.43;;;;;;;13.37;74.19;100144.88;5044864;28;20063;-68
2021/10/21 03:08:35;;;;;;;13.02;7.78;;;;;;;13.39;74.22;100140.19;5045811;28;20027;-69
2021/10/21 03:11:00;;;;;;;9.10;7.80;;;;;;;13.38;73.77;100127.69;5046598;28;20035;-69
2021/10/21 03:13:26;;;;;;;9.18;7.38;;;;;;;13.45;73.50;100126.09;5025878;28;20056;-69
2021/10/21 03:15:51;;;;;;;8.93;7.03;;;;;;;13.47;74.00;100129.44;5025079;28;20033;-69
2021/10/21 03:18:16;;;;;;;8.68;6.80;;;;;;;13.45;73.81;100118.00;5026232;28;20056;-69
2021/10/21 03:20:42;;;;;;;7.85;6.57;;;;;;;13.53;73.52;100131.53;5025897;28;20025;-69
2021/10/21 03:23:07;;;;;;;10.20;6.78;;;;;;;13.57;72.80;100119.41;5043976;28;20036;-69
2021/10/21 03:25:33;;;;;;;10.48;7.35;;;;;;;13.59;72.44;100109.34;5045798;28;20032;-69
2021/10/21 03:27:58;;;;;;;9.52;7.57;;;;;;;13.62;72.63;100109.88;5045951;28;20036;-68
2021/10/21 03:30:24;;;;;;;12.18;7.65;;;;;;;13.65;72.21;100106.00;5045221;28;20039;-68
2021/10/21 03:32:50;;;;;;;10.98;8.35;;;;;;;13.70;71.53;100101.81;5045617;28;20037;-67
2021/10/21 03:35:16;;;;;;;10.15;7.55;;;;;;;13.71;71.33;100108.88;5045891;28;20095;-69
2021/10/21 03:37:41;;;;;;;11.48;8.05;;;;;;;13.68;72.01;100105.69;5045402;28;20115;-69
2021/10/21 03:40:09;;;;;;;12.40;8.65;;;;;;;13.69;71.49;100100.16;5045809;28;20021;-68
2021/10/21 03:42:35;;;;;;;10.93;8.55;;;;;;;13.68;71.64;100103.00;5045483;28;20083;-68
2021/10/21 03:45:01;;;;;;;11.18;8.32;;;;;;;13.66;71.47;100102.28;5035431;28;20060;-68
2021/10/21 03:47:27;;;;;;;12.77;8.77;;;;;;;13.68;71.78;100097.59;5026052;28;20108;-68
2021/10/21 03:49:55;;;;;;;15.82;9.88;;;;;;;13.62;71.02;100093.69;5026853;28;20388;-69
2021/10/21 03:52:21;;;;;;;13.82;9.20;;;;;;;13.65;71.28;100100.63;5026767;28;20017;-69
2021/10/21 03:54:48;;;;;;;10.68;8.70;;;;;;;13.64;71.51;100107.00;5043449;28;20030;-69
2021/10/21 03:57:14;;;;;;;13.35;9.48;;;;;;;13.62;71.20;100090.16;5045828;28;20059;-69
2021/10/21 03:59:40;;;;;;;13.43;9.88;;;;;;;13.65;70.89;100081.75;5045351;28;20042;-68
2021/10/21 04:02:06;;;;;;;14.40;9.38;;;;;;;13.50;71.19;100068.03;5030697;28;20483;-69
2021/10/21 04:04:32;;;;;;;12.32;9.50;;;;;;;13.60;70.92;100084.06;5025431;28;20029;-68
2021/10/21 04:06:57;;;;;;;11.55;9.52;;;;;;;13.63;70.67;100089.13;5025938;28;20025;-67
2021/10/21 04:09:23;;;;;;;15.10;9.88;;;;;;;13.61;70.87;100075.81;5025292;28;20033;-68
2021/10/21 04:11:55;;;;;;;16.50;10.70;;;;;;;13.63;70.67;100081.06;5025554;28;20025;-68
2021/10/21 04:14:20;;;;;;;15.57;10.93;;;;;;;13.62;70.89;100082.94;5032079;28;20499;-69
2021/10/21 04:16:46;;;;;;;13.60;10.15;;;;;;;13.59;70.49;100067.06;5045673;28;20099;-68
2021/10/21 04:19:11;;;;;;;12.60;10.23;;;;;;;13.56;71.38;100072.78;5044113;28;20021;-68
2021/10/21 04:21:36;;;;;;;14.65;10.70;;;;;;;13.60;70.64;100068.75;5045309;28;20017;-69
2021/10/21 04:24:02;;;;;;;11.65;9.48;;;;;;;13.56;71.24;100075.47;5045647;28;20037;-69
2021/10/21 04:26:28;;;;;;;18.10;10.57;;;;;;;13.55;71.46;100067.53;5044844;28;20029;-69
2021/10/21 04:28:54;;;;;;;15.68;10.50;;;;;;;13.54;71.44;100066.69;5045102;28;20119;-68
2021/10/21 04:31:19;;;;;;;13.50;9.95;;;;;;;13.54;71.38;100065.84;5032699;28;20022;-67
2021/10/21 04:33:44;;;;;;;17.17;10.57;;;;;;;13.50;71.30;100059.94;5025064;28;20033;-68
2021/10/21 04:36:10;;;;;;;14.10;10.02;;;;;;;13.42;71.26;100043.72;5025141;28;20048;-69
2021/10/21 04:38:35;;;;;;;14.73;10.02;;;;;;;13.43;71.31;100039.19;5025184;28;20415;-68
2021/10/21 04:41:01;;;;;;;15.45;10.43;;;;;;;13.53;70.56;100058.78;5025123;28;20037;-69
2021/10/21 04:43:27;;;;;;;13.88;10.18;;;;;;;13.49;70.88;100049.31;5044332;28;20033;-69
2021/10/21 04:45:52;;;;;;;15.38;10.55;;;;;;;13.53;70.74;100054.25;5043386;28;20049;-69
2021/10/21 04:48:18;;;;;;;14.75;10.35;;;;;;;13.51;70.97;100041.91;5033403;28;20032;-69
2021/10/21 04:50:43;;;;;;;15.75;10.20;;;;;;;13.46;71.31;100039.72;5027968;28;20061;-68
2021/10/21 04:53:09;;;;;;;13.32;10.25;;;;;;;13.45;71.58;100043.41;5028290;28;20029;-69
2021/10/21 04:55:35;;;;;;;13.40;9.73;;;;;;;13.46;71.41;100038.84;5026696;28;20059;-69
2021/10/21 04:58:04;;;;;;;12.52;10.07;;;;;;;13.45;71.47;100032.63;5028544;28;20048;-68
2021/10/21 05:00:30;;;;;;;12.80;9.55;;;;;;;13.43;71.31;100023.88;5022924;28;20034;-69
2021/10/21 05:02:57;;;;;;;14.85;10.68;;;;;;;13.40;71.25;100012.56;5026546;28;20108;-69
2021/10/21 05:05:22;;;;;;;13.75;10.20;;;;;;;13.42;71.71;100024.84;5029991;28;20067;-69
2021/10/21 05:07:48;;;;;;;11.30;8.77;;;;;;;13.48;70.61;100023.41;5026567;28;20056;-68
2021/10/21 05:10:14;;;;;;;12.15;9.13;;;;;;;13.43;71.84;100023.88;5031889;28;20076;-68
2021/10/21 05:12:39;;;;;;;12.98;9.50;;;;;;;13.45;70.92;100019.16;5024799;28;20049;-70
2021/10/21 05:15:06;;;;;;;14.07;9.82;;;;;;;13.43;71.45;100023.00;5027628;28;20032;-69
2021/10/21 05:17:32;;;;;;;10.93;8.88;;;;;;;13.42;71.66;100024.84;5027662;28;20075;-68
2021/10/21 05:19:57;;;;;;;13.38;8.95;;;;;;;13.43;71.09;100007.72;5029676;28;20014;-67
2021/10/21 05:22:23;;;;;;;11.45;8.48;;;;;;;13.47;71.13;100005.50;5028681;28;20091;-68
2021/10/21 05:24:48;;;;;;;11.55;8.23;;;;;;;13.52;70.90;100013.97;5029036;28;20076;-68
2021/10/21 05:27:14;;;;;;;11.45;8.57;;;;;;;13.52;71.14;100016.66;5028480;28;20354;-68
2021/10/21 05:29:40;;;;;;;11.52;7.82;;;;;;;13.49;70.66;100017.00;5027574;28;20061;-68
2021/10/21 05:32:07;;;;;;;10.95;8.13;;;;;;;13.52;70.95;100019.38;5029389;28;20382;-68
2021/10/21 05:34:37;;;;;;;10.20;7.55;;;;;;;13.49;71.07;100017.00;5028586;28;20033;-68
2021/10/21 05:37:04;;;;;;;13.98;8.40;;;;;;;13.52;70.97;100016.66;5029290;28;20094;-68
2021/10/21 05:39:30;;;;;;;9.13;7.63;;;;;;;13.53;71.11;100023.75;5028334;28;20371;-68
2021/10/21 05:41:55;;;;;;;11.18;7.70;;;;;;;13.58;70.51;100022.25;5032936;28;20068;-68
2021/10/21 05:44:21;;;;;;;11.25;7.63;;;;;;;13.55;70.59;100019.88;5046162;28;20487;-68
2021/10/21 05:46:49;;;;;;;10.07;7.68;;;;;;;13.65;70.30;100022.47;5047323;28;20495;-67
2021/10/21 05:49:14;;;;;;;11.07;7.53;;;;;;;13.62;70.55;100012.84;5047815;28;20383;-67
2021/10/21 05:51:40;;;;;;;13.27;7.90;;;;;;;13.76;69.39;100019.47;5047505;28;20024;-68
2021/10/21 05:54:05;;;;;;;9.52;7.60;;;;;;;13.73;69.64;100018.97;5046649;28;20219;-68
2021/10/21 05:56:31;;;;;;;10.15;7.22;;;;;;;13.70;69.70;100017.41;5026398;28;20033;-68
2021/10/21 05:58:56;;;;;;;11.10;7.93;;;;;;;13.76;69.72;100019.47;5024625;28;20662;-69
2021/10/21 06:01:22;;;;;;;12.27;7.60;;;;;;;13.79;69.00;100024.53;5027690;28;20471;-68
2021/10/21 06:03:47;;;;;;;11.55;7.10;;;;;;;13.84;69.09;100018.66;5030100;28;20368;-68
2021/10/21 06:06:13;;;;;;;7.57;6.40;;;;;;;13.81;68.52;100013.59;5047547;28;20029;-68
2021/10/21 06:08:38;;;;;;;9.85;6.85;;;;;;;13.88;68.67;100018.19;5046544;28;20458;-67
2021/10/21 06:11:04;;;;;;;9.32;5.78;;;;;;;13.91;68.12;100012.47;5027254;28;20479;-68
2021/10/21 06:13:34;;;;;;;11.48;7.18;;;;;;;13.90;68.19;100007.22;5026500;28;20025;-68
2021/10/21 06:16:00;;;;;;;11.98;6.53;;;;;;;14.00;68.20;100008.78;5027754;28;20087;-67
2021/10/21 06:18:25;;;;;;;9.13;6.32;;;;;;;14.00;68.06;100014.19;5027732;28;20025;-68
2021/10/21 06:20:51;;;;;;;11.60;6.32;;;;;;;14.00;67.96;100016.88;5030763;28;20025;-69
2021/10/21 06:23:16;;;;;;;7.72;5.90;;;;;;;14.03;67.94;100016.56;5039071;28;20027;-69
2021/10/21 06:25:42;;;;;;;9.85;6.10;;;;;;;14.05;67.68;100006.44;5047344;28;20033;-69
2021/10/21 06:28:07;;;;;;;6.90;5.78;;;;;;;14.04;67.34;100007.44;5047641;28;20033;-68
2021/10/21 06:30:35;;;;;;;8.25;6.05;;;;;;;14.14;67.26;100000.06;5031500;28;20034;-68
2021/10/21 06:33:02;;;;;;;8.63;6.03;;;;;;;14.18;67.42;100012.19;5027494;28;20044;-68
2021/10/21 06:35:27;;;;;;;9.10;5.60;;;;;;;14.19;66.95;100000.38;5041817;28;20036;-69
2021/10/21 06:37:53;;;;;;;8.32;5.93;;;;;;;14.29;67.25;100006.53;5035967;28;20033;-69
2021/10/21 06:40:18;;;;;;;7.70;5.65;;;;;;;14.34;66.69;100004.16;5047015;28;20029;-69
2021/10/21 06:42:44;;;;;;;8.10;5.40;;;;;;;14.41;66.07;99999.78;5034273;28;20128;-69
2021/10/21 06:45:13;;;;;;;6.80;4.80;;;;;;;14.46;65.82;100002.84;5027751;28;20067;-67
2021/10/21 06:47:39;;;;;;;6.78;5.03;;;;;;;14.47;65.49;99995.56;5035904;28;20025;-68
2021/10/21 06:50:07;;;;;;;7.43;5.82;;;;;;;14.53;65.28;99998.47;5040406;28;20025;-68
2021/10/21 06:52:32;;;;;;;7.38;5.32;;;;;;;14.60;65.41;100009.41;5045001;28;20032;-68
2021/10/21 06:54:58;;;;;;;7.13;4.78;;;;;;;14.67;64.86;99996.97;5029381;28;20027;-69
2021/10/21 06:57:23;;;;;;;6.75;4.88;;;;;;;14.64;65.03;99998.13;5026886;28;20124;-68
2021/10/21 06:59:48;;;;;;;7.15;5.20;;;;;;;14.69;64.52;100008.41;5024875;28;20384;-68
2021/10/21 07:02:14;;;;;;;7.43;4.68;;;;;;;14.76;64.55;99993.22;5027812;28;20018;-69
2021/10/21 07:04:39;;;;;;;8.02;5.10;;;;;;;14.78;64.20;99994.75;5026590;28;20025;-69
2021/10/21 07:07:05;;;;;;;6.80;4.85;;;;;;;14.88;63.91;100008.94;5024489;28;20032;-69
2021/10/21 07:09:30;;;;;;;7.45;5.60;;;;;;;14.94;63.90;100005.56;5026288;28;20022;-69
2021/10/21 07:11:56;;;;;;;7.28;5.38;;;;;;;14.98;64.07;100003.34;5026966;28;20037;-69
2021/10/21 07:14:21;;;;;;;8.85;5.63;;;;;;;15.02;63.93;100000.13;5033782;28;20029;-69
2021/10/21 07:16:47;;;;;;;5.88;4.90;;;;;;;14.99;63.61;99986.97;5044662;28;20172;-63
2021/10/21 07:19:12;;;;;;;7.32;5.05;;;;;;;15.09;63.44;99998.44;5030245;28;20028;-63
2021/10/21 07:21:38;;;;;;;7.68;5.32;;;;;;;15.16;63.20;100002.13;5043990;28;20271;-62
2021/10/21 07:24:04;;;;;;;7.30;5.32;;;;;;;15.18;63.11;99994.72;5034289;28;20018;-62
2021/10/21 07:26:29;;;;;;;8.80;4.97;;;;;;;15.30;62.31;100001.44;5026115;28;20033;-64
2021/10/21 07:28:55;;;;;;;5.82;4.68;;;;;;;15.37;62.18;99997.06;5026125;28;20025;-64
2021/10/21 07:31:21;;;;;;;6.50;4.85;;;;;;;15.43;62.24;99998.22;5026208;28;20033;-64
2021/10/21 07:33:47;;;;;;;7.95;5.60;;;;;;;15.66;60.91;99994.59;5025959;28;20105;-63
2021/10/21 07:36:13;;;;;;;6.72;4.70;;;;;;;16.12;59.63;99983.91;5040651;28;20139;-63
2021/10/21 07:38:39;;;;;;;8.55;5.07;;;;;;;16.81;58.06;99975.63;5045585;28;20033;-64
2021/10/21 07:41:04;;;;;;;5.43;4.57;;;;;;;17.65;55.74;99970.72;5039293;28;20035;-68
2021/10/21 07:43:31;;;;;;;9.80;4.35;;;;;;;18.03;53.04;99970.34;5025808;28;20383;-68
2021/10/21 07:45:57;;;;;;;5.82;4.70;;;;;;;18.24;52.24;99972.28;5024616;28;20056;-68
2021/10/21 07:48:22;;;;;;;6.38;4.75;;;;;;;18.38;51.67;99982.25;5025904;28;20033;-69
2021/10/21 07:50:48;;;;;;;9.27;4.75;;;;;;;18.59;50.11;99970.56;5024542;28;20307;-68
2021/10/21 07:53:14;;;;;;;6.95;4.10;;;;;;;18.64;49.35;99946.41;5046318;28;20043;-69
2021/10/21 07:55:39;;;;;;;5.25;4.15;;;;;;;18.50;49.68;99929.13;5030983;28;20029;-68
2021/10/21 07:58:05;;;;;;;7.25;4.35;;;;;;;18.52;49.80;99935.22;5025608;28;20396;-69
2021/10/21 08:00:32;;;;;;;7.47;4.38;;;;;;;18.36;49.99;99932.75;5025647;28;20026;-70
2021/10/21 08:02:57;;;;;;;8.00;4.72;;;;;;;18.32;50.05;99941.44;5025799;28;20052;-65
2021/10/21 08:05:23;;;;;;;7.63;4.38;;;;;;;18.31;50.02;99946.03;5024641;28;20454;-64
2021/10/21 08:07:49;;;;;;;6.72;4.70;;;;;;;18.16;50.19;99945.25;5025470;28;20022;-64
2021/10/21 08:10:16;;;;;;;12.43;5.13;;;;;;;18.16;49.41;99937.13;5025979;28;20148;-64
2021/10/21 08:12:43;;;;;;;11.10;4.68;;;;;;;18.08;49.74;99939.13;5025779;28;20102;-64
2021/10/21 08:15:11;;;;;;;7.50;4.10;;;;;;;18.01;49.94;99939.88;5025620;28;20042;-62
2021/10/21 08:17:37;;;;;;;9.40;4.78;;;;;;;17.99;49.27;99944.63;5024466;28;20037;-63
2021/10/21 08:20:03;;;;;;;6.20;4.47;;;;;;;17.97;49.98;99948.59;5029897;28;20048;-63
2021/10/21 08:22:29;;;;;;;6.57;4.45;;;;;;;17.93;50.22;99941.88;5029166;28;20041;-64
2021/10/21 08:24:55;;;;;;;9.48;4.95;;;;;;;17.95;49.48;99942.50;5028447;28;20060;-63
2021/10/21 08:27:21;;;;;;;7.65;4.25;;;;;;;17.93;49.90;99939.97;5029445;28;20049;-63
2021/10/21 08:29:47;;;;;;;8.55;4.60;;;;;;;17.98;49.56;99934.81;5029357;28;20064;-63
2021/10/21 08:32:12;;;;;;;11.73;4.90;;;;;;;18.14;48.89;99950.03;5028438;28;20030;-62
2021/10/21 08:34:39;;;;;;;13.00;4.57;;;;;;;18.19;49.00;99944.03;5029037;28;20035;-63
2021/10/21 08:37:06;;;;;;;10.15;5.00;;;;;;;18.20;49.33;99924.84;5045231;28;20463;-63
2021/10/21 08:39:34;;;;;;;8.15;4.75;;;;;;;18.24;48.94;99923.41;5048870;28;20477;-63
2021/10/21 08:41:59;;;;;;;6.95;4.30;;;;;;;18.30;49.01;99924.50;5049269;28;20032;-63
2021/10/21 08:44:25;;;;;;;9.73;4.80;;;;;;;18.32;48.78;99927.88;5049278;28;20045;-63
2021/10/21 08:46:52;;;;;;;9.15;4.75;;;;;;;18.37;48.74;99933.59;5047741;28;20033;-63
2021/10/21 08:49:18;;;;;;;6.22;4.40;;;;;;;18.36;48.49;99930.03;5029577;28;20423;-63
2021/10/21 08:51:43;;;;;;;8.95;4.43;;;;;;;18.45;48.59;99933.47;5029724;28;20500;-63
2021/10/21 08:54:10;;;;;;;11.60;4.25;;;;;;;18.43;48.49;99919.22;5029114;28;20117;-63
2021/10/21 08:56:36;;;;;;;7.15;4.40;;;;;;;18.52;48.49;99923.50;5028731;28;20029;-63
2021/10/21 08:59:03;;;;;;;8.35;4.15;;;;;;;18.57;48.65;99921.06;5028905;28;20026;-63
2021/10/21 09:01:39;;;;;;;8.20;4.90;;;;;;;18.69;47.63;99916.75;5028462;28;20033;-63
2021/10/21 09:09:44;;;;;;;5.95;4.53;;;;;;;18.98;47.46;99906.53;5029167;28;20454;-63
2021/10/21 09:12:17;;;;;;;11.52;4.43;;;;;;;19.20;47.39;99913.59;5022949;28;20129;-64
2021/10/21 09:14:45;;;;;;;8.23;4.90;;;;;;;19.48;46.28;99886.38;5028404;28;20026;-62
2021/10/21 09:17:14;;;;;;;10.23;4.50;;;;;;;19.74;46.15;99891.94;5028878;28;20037;-63
2021/10/21 09:19:41;;;;;;;14.30;4.90;;;;;;;20.09;44.85;99886.16;5028569;28;20072;-63
2021/10/21 09:22:21;;;;;;;14.20;4.47;;;;;;;20.71;43.83;99893.19;5042289;28;20035;-63
2021/10/21 09:24:46;;;;;;;13.25;4.18;;;;;;;21.72;41.99;99879.75;5048559;28;20289;-63
2021/10/21 09:27:25;;;;;;;25.13;4.90;;;;;;;22.69;39.92;99875.63;5048510;28;20029;-63
2021/10/21 09:29:53;;;;;;;25.35;4.93;;;;;;;23.70;38.39;99885.13;5048046;28;20676;-64
2021/10/21 09:32:20;;;;;;;15.73;4.22;;;;;;;24.65;36.72;99878.72;5048821;28;20021;-64
2021/10/21 09:34:51;;;;;;;20.17;4.22;;;;;;;25.39;35.46;99885.22;5046792;28;20028;-63
2021/10/21 09:37:32;;;;;;;18.60;4.50;;;;;;;25.73;34.23;99867.00;5031302;28;20025;-63
2021/10/21 09:40:00;;;;;;;18.70;4.20;;;;;;;25.85;34.29;99878.78;5027068;28;20602;-63
2021/10/21 09:42:36;;;;;;;15.45;4.32;;;;;;;26.10;33.91;99866.41;5028177;28;20043;-63
2021/10/21 09:45:16;;;;;;;19.45;4.50;;;;;;;26.50;33.08;99861.66;5028031;28;20168;-69
2021/10/21 09:47:46;;;;;;;13.80;3.78;;;;;;;26.93;32.76;99860.19;5033392;28;20044;-69
2021/10/21 09:50:40;;;;;;;14.13;3.72;;;;;;;27.10;32.47;99852.72;5048060;28;20025;-69
2021/10/21 09:53:09;;;;;;;18.92;3.88;;;;;;;27.03;32.29;99869.44;5028814;28;20025;-71
2021/10/21 09:55:37;;;;;;;17.90;4.13;;;;;;;26.84;32.78;99861.69;5028714;28;20037;-69
2021/10/21 09:58:08;;;;;;;17.27;4.28;;;;;;;26.15;33.76;99855.50;5046587;28;20364;-68
2021/10/21 10:00:36;;;;;;;16.75;4.00;;;;;;;25.71;34.67;99877.41;5046597;28;20021;-69
2021/10/21 10:03:13;;;;;;;14.98;4.55;;;;;;;25.19;35.44;99865.53;5028066;28;20021;-68
2021/10/21 10:05:40;;;;;;;21.33;4.57;;;;;;;24.75;36.06;99870.75;5027353;28;20025;-69
2021/10/21 10:08:09;;;;;;;13.35;3.88;;;;;;;24.33;36.86;99856.22;5027586;28;20030;-68
2021/10/21 10:10:40;;;;;;;16.02;3.83;;;;;;;23.92;37.78;99854.25;5027455;28;20025;-69
2021/10/21 10:13:07;;;;;;;16.83;4.82;;;;;;;23.55;38.31;99847.19;5026154;28;20086;-70
2021/10/21 10:15:37;;;;;;;16.58;3.90;;;;;;;23.16;39.18;99861.28;5027332;28;20199;-64
2021/10/21 10:18:14;;;;;;;16.75;4.38;;;;;;;22.82;39.81;99858.28;5027630;28;20111;-64
2021/10/21 10:20:39;;;;;;;11.00;4.47;;;;;;;22.40;40.35;99839.88;5026876;28;20111;-64
2021/10/21 10:23:11;;;;;;;18.08;4.85;;;;;;;22.19;41.04;99863.75;5027421;28;20791;-63
2021/10/21 10:25:50;;;;;;;11.50;4.63;;;;;;;21.93;41.46;99874.84;5027117;28;20033;-63
2021/10/21 10:28:16;;;;;;;15.48;4.30;;;;;;;21.75;41.78;99868.44;5027322;28;20055;-63
2021/10/21 10:30:56;;;;;;;13.65;4.30;;;;;;;21.48;42.25;99850.47;5046430;28;20057;-64
2021/10/21 10:33:34;;;;;;;9.63;4.30;;;;;;;21.34;42.46;99865.19;5047188;28;20078;-63
2021/10/21 10:36:21;;;;;;;13.02;4.40;;;;;;;21.21;42.71;99863.34;5047086;28;20039;-63
2021/10/21 10:38:47;;;;;;;9.48;4.05;;;;;;;21.14;42.91;99861.69;5046840;28;20475;-64
2021/10/21 10:41:13;;;;;;;17.88;4.40;;;;;;;21.02;43.49;99850.59;5044781;28;20036;-63
2021/10/21 10:43:41;;;;;;;8.30;4.20;;;;;;;21.08;43.41;99865.28;5046426;28;20498;-64
2021/10/21 10:46:11;;;;;;;9.30;4.32;;;;;;;21.10;43.58;99863.19;5046721;28;20472;-64
2021/10/21 10:48:46;;;;;;;5.60;3.78;;;;;;;21.06;43.58;99845.56;5046535;28;20028;-63
2021/10/21 10:51:12;;;;;;;23.27;4.45;;;;;;;21.00;42.58;99860.06;5031263;28;20033;-63
2021/10/21 10:53:49;;;;;;;8.50;3.33;;;;;;;21.08;42.56;99844.31;5026482;28;20028;-63
2021/10/21 10:56:36;;;;;;;20.00;3.28;;;;;;;21.01;42.74;99838.03;5026858;28;20033;-63
2021/10/21 10:59:22;;;;;;;15.18;3.83;;;;;;;21.00;43.24;99836.38;5026864;28;20079;-63
2021/10/21 11:01:49;;;;;;;17.08;4.25;;;;;;;21.00;43.32;99849.16;5026317;28;20247;-63
2021/10/21 11:04:52;;;;;;;14.80;3.47;;;;;;;20.95;43.29;99848.94;5026700;28;20033;-63
2021/10/21 11:07:26;;;;;;;17.25;4.00;;;;;;;20.93;43.13;99848.28;5026685;28;20025;-64
2021/10/21 11:09:54;;;;;;;16.42;3.33;;;;;;;20.93;43.21;99851.84;5026502;28;20428;-64
2021/10/21 11:12:22;;;;;;;17.58;3.63;;;;;;;21.01;42.71;99832.56;5026703;28;20021;-62
2021/10/21 11:14:54;;;;;;;11.60;3.38;;;;;;;20.89;42.98;99822.50;5026737;28;20033;-63
2021/10/21 11:17:38;;;;;;;22.42;4.03;;;;;;;20.91;42.94;99848.50;5026989;28;20509;-64
2021/10/21 11:20:04;;;;;;;30.00;4.65;;;;;;;20.89;42.86;99855.22;5026471;28;20087;-63
2021/10/21 11:22:34;;;;;;;29.65;4.65;;;;;;;20.81;43.18;99831.75;5026081;28;20124;-64
2021/10/21 11:25:03;;;;;;;18.98;4.20;;;;;;;20.76;43.63;99819.81;5034882;28;20029;-63
2021/10/21 11:27:34;;;;;;;8.90;3.17;;;;;;;20.70;43.56;99839.72;5044598;28;20035;-62